createdAt,value
2023-04-15T00:01:04.612Z,74.27
2023-04-15T00:03:31.715Z,74.26
2023-04-15T00:05:58.604Z,74.39
2023-04-15T00:08:25.683Z,74.60
2023-04-15T00:10:53.446Z,74.62
2023-04-15T00:13:20.335Z,74.64
2023-04-15T00:15:48.090Z,74.59
2023-04-15T00:18:14.873Z,74.57
2023-04-15T00:20:41.742Z,74.42
2023-04-15T00:23:08.669Z,74.33
2023-04-15T00:25:35.429Z,74.34
2023-04-15T00:28:02.739Z,74.45
2023-04-15T00:30:29.516Z,74.30
2023-04-15T00:32:56.317Z,74.26
2023-04-15T00:35:24.139Z,74.23
2023-04-15T00:37:51.586Z,74.24
2023-04-15T00:40:21.097Z,74.08
2023-04-15T00:42:48.289Z,73.96
2023-04-15T00:45:15.717Z,73.96
2023-04-15T00:47:43.841Z,73.93
2023-04-15T00:50:12.608Z,73.85
2023-04-15T00:52:40.909Z,73.84
2023-04-15T00:55:09.008Z,73.82
2023-04-15T00:57:36.506Z,73.87
2023-04-15T01:00:04.927Z,73.81
2023-04-15T01:02:33.009Z,73.69
2023-04-15T01:05:00.182Z,73.69
2023-04-15T01:07:27.177Z,73.88
2023-04-15T01:09:54.067Z,73.83
2023-04-15T01:12:21.240Z,73.67
2023-04-15T01:14:48.020Z,73.62
2023-04-15T01:17:14.994Z,73.63
2023-04-15T01:19:41.925Z,73.55
2023-04-15T01:22:09.245Z,73.60
2023-04-15T01:24:37.714Z,73.59
2023-04-15T01:27:07.291Z,73.55
2023-04-15T01:29:38.371Z,73.33
2023-04-15T01:32:05.949Z,73.44
2023-04-15T01:34:35.462Z,73.55
2023-04-15T01:37:02.574Z,73.50
2023-04-15T01:39:29.300Z,73.39
2023-04-15T01:41:56.050Z,73.52
2023-04-15T01:44:22.796Z,73.63
2023-04-15T01:46:49.647Z,73.68
2023-04-15T01:49:17.053Z,73.62
2023-04-15T01:51:43.880Z,73.59
2023-04-15T01:54:10.638Z,73.55
2023-04-15T01:56:37.475Z,73.45
2023-04-15T01:59:04.279Z,73.44
2023-04-15T02:01:31.159Z,73.46
2023-04-15T02:03:58.050Z,73.51
2023-04-15T02:06:25.470Z,73.38
2023-04-15T02:08:52.286Z,73.42
2023-04-15T02:11:19.875Z,73.52
2023-04-15T02:13:46.881Z,73.41
2023-04-15T02:16:20.324Z,73.41
2023-04-15T02:18:47.545Z,73.50
2023-04-15T02:21:14.977Z,73.64
2023-04-15T02:23:41.792Z,73.74
2023-04-15T02:26:08.590Z,73.91
2023-04-15T02:28:35.924Z,73.86
2023-04-15T02:31:06.667Z,73.70
2023-04-15T02:33:33.831Z,73.59
2023-04-15T02:36:01.150Z,73.49
2023-04-15T02:38:27.928Z,73.47
2023-04-15T02:40:54.732Z,73.46
2023-04-15T02:43:21.772Z,73.44
2023-04-15T02:45:48.691Z,73.46
2023-04-15T02:48:18.092Z,73.37
2023-04-15T02:50:46.699Z,73.42
2023-04-15T02:53:14.750Z,73.35
2023-04-15T02:55:42.862Z,73.40
2023-04-15T02:58:09.904Z,73.31
2023-04-15T03:00:36.777Z,73.27
2023-04-15T03:03:05.342Z,73.38
2023-04-15T03:05:32.714Z,73.32
2023-04-15T03:08:01.292Z,73.44
2023-04-15T03:10:28.540Z,73.40
2023-04-15T03:12:55.723Z,73.44
2023-04-15T03:15:23.159Z,73.35
2023-04-15T03:17:50.116Z,73.30
2023-04-15T03:20:17.146Z,73.36
2023-04-15T03:22:43.998Z,73.33
2023-04-15T03:25:10.750Z,73.32
2023-04-15T03:27:38.920Z,73.28
2023-04-15T03:30:07.857Z,73.24
2023-04-15T03:32:34.927Z,73.31
2023-04-15T03:35:01.718Z,73.36
2023-04-15T03:37:28.709Z,73.31
2023-04-15T03:39:55.657Z,73.38
2023-04-15T03:42:22.483Z,73.26
2023-04-15T03:44:49.324Z,73.40
2023-04-15T03:47:16.511Z,73.42
2023-04-15T03:49:46.302Z,73.45
2023-04-15T03:52:12.996Z,73.38
2023-04-15T03:54:39.749Z,73.40
2023-04-15T03:57:06.646Z,73.39
2023-04-15T03:59:33.398Z,73.23
2023-04-15T04:02:00.462Z,73.25
2023-04-15T04:04:27.353Z,73.40
2023-04-15T04:06:54.119Z,73.48
2023-04-15T04:09:20.958Z,73.50
2023-04-15T04:11:47.675Z,73.29
2023-04-15T04:14:14.435Z,73.40
2023-04-15T04:16:41.598Z,73.40
2023-04-15T04:19:08.660Z,73.44
2023-04-15T04:21:36.572Z,73.54
2023-04-15T04:24:03.554Z,73.49
2023-04-15T04:26:30.517Z,73.49
2023-04-15T04:28:57.283Z,73.55
2023-04-15T04:31:24.142Z,73.50
2023-04-15T04:33:51.314Z,73.40
2023-04-15T04:36:18.564Z,73.36
2023-04-15T04:38:45.417Z,73.38
2023-04-15T04:41:12.176Z,73.48
2023-04-15T04:43:39.015Z,73.48
2023-04-15T04:46:05.897Z,73.49
2023-04-15T04:48:32.913Z,73.56
2023-04-15T04:50:59.755Z,73.45
2023-04-15T04:53:26.721Z,73.30
2023-04-15T04:55:53.683Z,73.35
2023-04-15T04:58:20.694Z,73.42
2023-04-15T05:00:47.995Z,73.33
2023-04-15T05:03:14.941Z,73.33
2023-04-15T05:05:41.933Z,73.30
2023-04-15T05:08:08.646Z,73.36
2023-04-15T05:10:35.426Z,73.31
2023-04-15T05:13:02.222Z,73.37
2023-04-15T05:15:29.372Z,73.51
2023-04-15T05:17:56.199Z,73.65
2023-04-15T05:20:22.967Z,73.71
2023-04-15T05:22:49.934Z,73.84
2023-04-15T05:25:17.001Z,73.88
2023-04-15T05:27:44.054Z,73.79
2023-04-15T05:30:13.327Z,73.81
2023-04-15T05:32:41.711Z,73.74
2023-04-15T05:35:08.722Z,73.72
2023-04-15T05:37:35.607Z,73.80
2023-04-15T05:40:02.396Z,73.74
2023-04-15T05:42:29.154Z,73.79
2023-04-15T05:44:56.277Z,73.79
2023-04-15T05:47:23.166Z,73.96
2023-04-15T05:49:49.978Z,73.96
2023-04-15T05:52:16.739Z,74.04
2023-04-15T05:54:43.485Z,73.99
2023-04-15T05:57:10.192Z,74.04
2023-04-15T05:59:37.039Z,74.09
2023-04-15T06:02:03.961Z,73.75
2023-04-15T06:04:31.178Z,73.64
2023-04-15T06:06:57.989Z,73.61
2023-04-15T06:09:24.897Z,73.59
2023-04-15T06:11:52.373Z,73.68
2023-04-15T06:14:19.087Z,73.62
2023-04-15T06:16:45.817Z,73.52
2023-04-15T06:19:12.531Z,73.57
2023-04-15T06:21:39.321Z,73.76
2023-04-15T06:24:06.418Z,73.72
2023-04-15T06:26:33.213Z,73.74
2023-04-15T06:29:00.468Z,73.79
2023-04-15T06:31:27.657Z,73.77
2023-04-15T06:33:54.508Z,73.60
2023-04-15T06:36:21.766Z,73.51
2023-04-15T06:38:48.579Z,73.43
2023-04-15T06:41:15.824Z,73.19
2023-04-15T06:43:42.570Z,72.97
2023-04-15T06:46:09.449Z,73.03
2023-04-15T06:48:36.369Z,73.00
2023-04-15T06:51:04.152Z,72.94
2023-04-15T06:53:31.046Z,72.91
2023-04-15T06:55:57.805Z,72.77
2023-04-15T06:58:24.555Z,72.62
2023-04-15T07:00:52.116Z,72.51
2023-04-15T07:03:19.091Z,72.38
2023-04-15T07:05:46.127Z,72.23
2023-04-15T07:08:12.893Z,72.23
2023-04-15T07:10:39.800Z,72.23
2023-04-15T07:13:08.874Z,72.06
2023-04-15T07:15:35.863Z,71.90
2023-04-15T07:18:02.756Z,71.71
2023-04-15T07:20:29.557Z,71.58
2023-04-15T07:22:56.453Z,71.41
2023-04-15T07:25:23.241Z,71.30
2023-04-15T07:27:50.104Z,71.27
2023-04-15T07:30:17.012Z,71.22
2023-04-15T07:32:43.877Z,71.14
2023-04-15T07:35:11.672Z,71.05
2023-04-15T07:37:38.452Z,71.00
2023-04-15T07:40:07.227Z,70.95
2023-04-15T07:42:34.597Z,70.87
2023-04-15T07:45:01.626Z,70.84
2023-04-15T07:47:28.672Z,70.78
2023-04-15T07:49:55.522Z,70.79
2023-04-15T07:52:22.429Z,70.76
2023-04-15T07:54:49.334Z,70.60
2023-04-15T07:57:17.149Z,70.56
2023-04-15T07:59:43.967Z,70.48
2023-04-15T08:02:11.994Z,70.51
2023-04-15T08:04:39.496Z,70.49
2023-04-15T08:07:07.214Z,70.38
2023-04-15T08:09:34.094Z,70.34
2023-04-15T08:12:01.099Z,70.40
2023-04-15T08:14:27.915Z,70.37
2023-04-15T08:16:54.669Z,70.34
2023-04-15T08:19:21.563Z,70.33
2023-04-15T08:21:48.390Z,70.38
2023-04-15T08:24:15.692Z,70.43
2023-04-15T08:26:42.806Z,70.42
2023-04-15T08:29:09.626Z,70.38
2023-04-15T08:31:36.517Z,70.33
2023-04-15T08:34:03.734Z,70.33
2023-04-15T08:36:32.291Z,70.24
2023-04-15T08:39:01.449Z,70.27
2023-04-15T08:41:35.874Z,70.32
2023-04-15T08:44:05.812Z,70.32
2023-04-15T08:46:34.941Z,70.28
2023-04-15T08:49:05.303Z,70.36
2023-04-15T08:51:32.816Z,70.51
2023-04-15T08:54:00.595Z,70.47
2023-04-15T08:56:30.536Z,70.48
2023-04-15T08:58:57.919Z,70.57
2023-04-15T09:01:25.616Z,70.65
2023-04-15T09:03:54.872Z,70.77
2023-04-15T09:06:23.102Z,70.58
2023-04-15T09:08:50.715Z,70.56
2023-04-15T09:11:20.644Z,70.76
2023-04-15T09:13:47.432Z,70.77
2023-04-15T09:16:14.480Z,70.80
2023-04-15T09:18:41.560Z,70.76
2023-04-15T09:21:16.863Z,70.79
2023-04-15T09:23:59.291Z,70.85
2023-04-15T09:26:38.077Z,70.89
2023-04-15T09:29:09.404Z,70.91
2023-04-15T09:31:39.817Z,70.68
2023-04-15T09:34:07.414Z,70.75
2023-04-15T09:36:55.003Z,70.90
2023-04-15T09:39:22.162Z,70.84
2023-04-15T09:42:06.877Z,70.84
2023-04-15T09:44:33.932Z,70.78
2023-04-15T09:47:01.468Z,70.92
2023-04-15T09:49:28.653Z,70.82
2023-04-15T09:52:05.581Z,70.75
2023-04-15T09:54:37.382Z,70.59
2023-04-15T09:57:10.516Z,70.72
2023-04-15T09:59:37.421Z,70.83
2023-04-15T10:02:07.815Z,70.96
2023-04-15T10:04:37.535Z,70.93
2023-04-15T10:07:06.490Z,71.25
2023-04-15T10:09:35.794Z,71.07
2023-04-15T10:12:05.501Z,71.23
2023-04-15T10:14:35.026Z,71.51
2023-04-15T10:17:03.473Z,71.44
2023-04-15T10:19:33.463Z,71.64
2023-04-15T10:22:00.353Z,71.64
2023-04-15T10:24:27.912Z,71.65
2023-04-15T10:26:55.444Z,71.74
2023-04-15T10:29:25.725Z,71.94
2023-04-15T10:31:54.780Z,72.07
2023-04-15T10:34:22.974Z,72.09
2023-04-15T10:36:50.356Z,71.94
2023-04-15T10:39:38.973Z,71.97
2023-04-15T10:42:19.423Z,72.24
2023-04-15T10:44:51.634Z,72.38
2023-04-15T10:47:20.577Z,72.12
2023-04-15T10:49:48.671Z,72.02
2023-04-15T10:52:18.140Z,72.12
2023-04-15T10:54:45.447Z,72.10
2023-04-15T10:57:17.554Z,72.46
2023-04-15T11:00:04.831Z,72.36
2023-04-15T11:02:52.205Z,72.55
2023-04-15T11:05:20.811Z,72.30
2023-04-15T11:07:48.896Z,72.16
2023-04-15T11:10:18.666Z,72.05
2023-04-15T11:12:46.092Z,72.26
2023-04-15T11:15:34.045Z,72.29
2023-04-15T11:18:13.664Z,72.22
2023-04-15T11:20:45.357Z,72.09
2023-04-15T11:23:14.153Z,72.22
2023-04-15T11:25:41.858Z,72.04
2023-04-15T11:28:08.706Z,72.03
2023-04-15T11:30:37.708Z,72.00
2023-04-15T11:33:06.817Z,71.94
2023-04-15T11:35:33.729Z,71.81
2023-04-15T11:38:27.996Z,71.86
2023-04-15T11:40:54.855Z,71.75
2023-04-15T11:43:23.152Z,71.69
2023-04-15T11:46:01.967Z,71.87
2023-04-15T11:48:30.752Z,71.74
2023-04-15T11:51:05.382Z,71.82
2023-04-15T11:53:42.719Z,71.76
2023-04-15T11:56:11.696Z,71.80
2023-04-15T11:58:39.348Z,71.72
2023-04-15T12:01:07.372Z,71.66
2023-04-15T12:03:38.644Z,71.72
2023-04-15T12:06:24.915Z,71.49
2023-04-15T12:09:13.028Z,71.35
2023-04-15T12:11:48.507Z,71.29
2023-04-15T12:14:29.432Z,71.55
2023-04-15T12:17:06.743Z,71.37
2023-04-15T12:19:42.041Z,71.31
2023-04-15T12:22:14.109Z,71.22
2023-04-15T12:24:47.946Z,71.30
2023-04-15T12:27:17.797Z,71.13
2023-04-15T12:29:44.666Z,71.11
2023-04-15T12:32:13.239Z,71.14
2023-04-15T12:34:42.215Z,70.98
2023-04-15T12:37:10.690Z,70.89
2023-04-15T12:39:39.781Z,70.80
2023-04-15T12:42:07.566Z,70.74
2023-04-15T12:44:37.320Z,70.55
2023-04-15T12:47:04.750Z,70.60
2023-04-15T12:49:32.997Z,70.25
2023-04-15T12:52:01.084Z,70.24
2023-04-15T12:54:29.594Z,70.01
2023-04-15T12:56:57.322Z,69.90
2023-04-15T12:59:24.488Z,69.93
2023-04-15T13:01:53.514Z,69.74
2023-04-15T13:04:21.387Z,69.76
2023-04-15T13:06:48.518Z,69.62
2023-04-15T13:09:15.849Z,69.60
2023-04-15T13:11:42.751Z,69.50
2023-04-15T13:14:11.754Z,69.43
2023-04-15T13:16:39.219Z,69.24
2023-04-15T13:19:06.508Z,69.12
2023-04-15T13:21:35.964Z,68.75
2023-04-15T13:24:04.271Z,68.51
2023-04-15T13:26:32.073Z,68.20
2023-04-15T13:28:59.527Z,68.19
2023-04-15T13:31:26.469Z,68.20
2023-04-15T13:33:53.380Z,68.23
2023-04-15T13:36:20.178Z,68.15
2023-04-15T13:38:48.656Z,67.72
2023-04-15T13:41:17.395Z,67.67
2023-04-15T13:43:44.234Z,67.67
2023-04-15T13:46:11.199Z,67.34
2023-04-15T13:48:38.238Z,67.06
2023-04-15T13:51:05.268Z,66.92
2023-04-15T13:53:38.383Z,66.94
2023-04-15T13:56:09.698Z,67.22
2023-04-15T13:58:37.716Z,67.33
2023-04-15T14:01:06.067Z,67.53
2023-04-15T14:03:34.937Z,67.53
2023-04-15T14:06:03.352Z,67.51
2023-04-15T14:08:30.204Z,67.55
2023-04-15T14:10:57.753Z,67.53
2023-04-15T14:13:24.730Z,67.43
2023-04-15T14:15:51.705Z,67.34
2023-04-15T14:18:18.509Z,67.00
2023-04-15T14:20:45.268Z,66.31
2023-04-15T14:23:12.167Z,66.39
2023-04-15T14:25:39.844Z,66.68
2023-04-15T14:28:07.245Z,66.40
2023-04-15T14:30:34.028Z,66.28
2023-04-15T14:33:39.811Z,66.20
2023-04-15T14:36:34.144Z,66.15
2023-04-15T14:39:11.313Z,65.42
2023-04-15T14:41:38.283Z,64.94
2023-04-15T14:44:05.484Z,65.10
2023-04-15T14:46:33.862Z,65.35
2023-04-15T14:49:00.732Z,65.33
2023-04-15T14:51:27.786Z,65.32
2023-04-15T14:53:54.586Z,64.58
2023-04-15T14:56:21.597Z,64.30
2023-04-15T14:58:49.412Z,64.84
2023-04-15T15:01:16.709Z,65.04
2023-04-15T15:03:43.913Z,64.96
2023-04-15T15:06:11.114Z,64.13
2023-04-15T15:08:38.077Z,64.67
2023-04-15T15:11:04.898Z,65.60
2023-04-15T15:13:31.761Z,66.05
2023-04-15T15:15:58.651Z,66.04
2023-04-15T15:18:26.076Z,66.42
2023-04-15T15:20:52.844Z,66.39
2023-04-15T15:23:19.820Z,66.60
2023-04-15T15:25:47.408Z,66.85
2023-04-15T15:28:14.215Z,66.89
2023-04-15T15:30:41.121Z,66.70
2023-04-15T15:33:07.979Z,66.80
2023-04-15T15:35:34.730Z,66.74
2023-04-15T15:38:01.734Z,66.54
2023-04-15T15:40:28.792Z,66.74
2023-04-15T15:43:14.261Z,66.84
2023-04-15T15:45:41.448Z,66.73
2023-04-15T15:48:08.498Z,66.86
2023-04-15T15:50:35.704Z,67.35
2023-04-15T15:53:02.543Z,67.65
2023-04-15T15:55:29.352Z,67.85
2023-04-15T15:57:56.093Z,68.06
2023-04-15T16:00:23.280Z,68.20
2023-04-15T16:03:06.186Z,68.35
2023-04-15T16:05:35.148Z,68.55
2023-04-15T16:08:02.360Z,68.42
2023-04-15T16:10:29.138Z,68.68
2023-04-15T16:12:56.084Z,68.73
2023-04-15T16:15:25.500Z,68.65
2023-04-15T16:17:52.676Z,68.78
2023-04-15T16:20:19.510Z,69.01
2023-04-15T16:22:46.560Z,69.04
2023-04-15T16:25:13.342Z,69.07
2023-04-15T16:27:57.133Z,69.36
2023-04-15T16:30:28.965Z,69.30
2023-04-15T16:32:56.944Z,69.45
2023-04-15T16:35:24.077Z,69.62
2023-04-15T16:37:51.186Z,69.56
2023-04-15T16:40:18.432Z,69.67
2023-04-15T16:42:45.618Z,69.70
2023-04-15T16:45:12.596Z,69.88
2023-04-15T16:47:39.575Z,69.74
2023-04-15T16:50:07.653Z,69.85
2023-04-15T16:52:35.035Z,69.90
2023-04-15T16:55:02.410Z,69.93
2023-04-15T16:58:00.645Z,70.01
2023-04-15T17:00:16.566Z,70.07
2023-04-15T17:02:43.738Z,70.02
2023-04-15T17:05:11.360Z,70.05
2023-04-15T17:07:38.528Z,70.10
2023-04-15T17:10:06.461Z,70.23
2023-04-15T17:12:33.515Z,70.37
2023-04-15T17:15:00.313Z,70.45
2023-04-15T17:17:27.135Z,70.49
2023-04-15T17:19:53.966Z,70.51
2023-04-15T17:22:21.241Z,70.44
2023-04-15T17:24:48.865Z,70.47
2023-04-15T17:27:16.259Z,70.58
2023-04-15T17:29:43.532Z,70.54
2023-04-15T17:32:11.277Z,70.44
2023-04-15T17:34:50.758Z,70.36
2023-04-15T17:37:18.817Z,70.74
2023-04-15T17:39:46.157Z,70.95
2023-04-15T17:42:13.753Z,70.91
2023-04-15T17:44:41.226Z,71.05
2023-04-15T17:47:08.672Z,71.00
2023-04-15T17:49:38.225Z,70.90
2023-04-15T17:52:05.459Z,71.00
2023-04-15T17:54:32.365Z,71.19
2023-04-15T17:57:01.777Z,71.26
2023-04-15T17:59:29.808Z,71.36
2023-04-15T18:01:59.898Z,71.41
2023-04-15T18:04:28.034Z,71.39
2023-04-15T18:06:55.661Z,71.36
2023-04-15T18:09:23.032Z,71.46
2023-04-15T18:11:50.496Z,71.55
2023-04-15T18:16:58.483Z,71.46
2023-04-15T18:19:25.846Z,71.36
2023-04-15T18:21:53.218Z,71.31
2023-04-15T18:24:20.531Z,71.30
2023-04-15T18:26:49.200Z,71.20
2023-04-15T18:29:18.007Z,71.31
2023-04-15T18:31:45.539Z,71.36
2023-04-15T18:34:13.499Z,71.41
2023-04-15T18:36:41.144Z,71.36
2023-04-15T18:39:08.882Z,71.55
2023-04-15T18:41:36.786Z,71.66
2023-04-15T18:44:04.491Z,71.61
2023-04-15T18:46:32.026Z,71.76
2023-04-15T18:48:59.414Z,71.81
2023-04-15T18:51:27.926Z,71.80
2023-04-15T18:53:55.832Z,71.74
2023-04-15T18:56:24.730Z,71.73
2023-04-15T18:59:26.963Z,71.67
2023-04-15T19:01:39.971Z,71.68
2023-04-15T19:04:07.282Z,71.70
2023-04-15T19:06:34.189Z,71.67
2023-04-15T19:09:01.900Z,71.70
2023-04-15T19:11:29.727Z,71.58
2023-04-15T19:13:57.074Z,71.62
2023-04-15T19:16:24.320Z,71.61
2023-04-15T19:18:55.168Z,71.63
2023-04-15T19:21:23.404Z,71.66
2023-04-15T19:23:50.789Z,71.69
2023-04-15T19:26:19.233Z,71.81
2023-04-15T19:28:46.701Z,71.90
2023-04-15T19:31:14.337Z,71.89
2023-04-15T19:33:42.777Z,71.85
2023-04-15T19:36:12.660Z,71.89
2023-04-15T19:38:40.603Z,72.10
2023-04-15T19:41:11.026Z,72.04
2023-04-15T19:43:38.749Z,72.10
2023-04-15T19:46:08.396Z,72.11
2023-04-15T19:48:37.339Z,72.15
2023-04-15T19:51:05.014Z,72.20
2023-04-15T19:53:32.368Z,72.28
2023-04-15T19:56:00.124Z,72.21
2023-04-15T19:58:28.325Z,72.15
2023-04-15T20:00:55.635Z,72.03
2023-04-15T20:03:23.315Z,72.04
2023-04-15T20:05:51.083Z,72.14
2023-04-15T20:08:19.529Z,72.20
2023-04-15T20:10:47.062Z,72.27
2023-04-15T20:13:14.499Z,72.35
2023-04-15T20:15:41.680Z,72.49
2023-04-15T20:18:09.150Z,72.52
2023-04-15T20:20:39.953Z,72.47
2023-04-15T20:23:10.862Z,72.53
2023-04-15T20:25:38.621Z,72.65
2023-04-15T20:28:05.733Z,72.67
2023-04-15T20:30:33.325Z,72.64
2023-04-15T20:33:01.302Z,72.59
2023-04-15T20:35:28.459Z,72.60
2023-04-15T20:37:55.559Z,72.63
2023-04-15T20:40:23.650Z,72.73
2023-04-15T20:42:51.379Z,72.81
2023-04-15T20:45:18.962Z,72.84
2023-04-15T20:47:46.276Z,72.74
2023-04-15T20:50:13.337Z,72.70
2023-04-15T20:52:40.406Z,72.67
2023-04-15T20:55:08.055Z,72.71
2023-04-15T20:57:35.233Z,72.75
2023-04-15T21:00:02.484Z,72.81
2023-04-15T21:02:29.810Z,72.81
2023-04-15T21:05:01.292Z,72.95
2023-04-15T21:07:28.283Z,72.96
2023-04-15T21:09:56.098Z,73.08
2023-04-15T21:12:22.967Z,73.11
2023-04-15T21:14:50.063Z,73.10
2023-04-15T21:17:16.948Z,73.05
2023-04-15T21:19:43.881Z,73.04
2023-04-15T21:22:10.643Z,73.11
2023-04-15T21:24:37.396Z,73.17
2023-04-15T21:27:04.271Z,73.11
2023-04-15T21:29:31.178Z,73.09
2023-04-15T21:31:58.040Z,73.12
2023-04-15T21:34:24.981Z,73.16
2023-04-15T21:36:52.077Z,73.15
2023-04-15T21:39:18.831Z,73.10
2023-04-15T21:41:45.756Z,73.22
2023-04-15T21:44:14.564Z,73.16
2023-04-15T21:46:42.078Z,73.07
2023-04-15T21:49:13.120Z,72.86
2023-04-15T21:51:39.837Z,72.96
2023-04-15T21:54:06.710Z,73.14
2023-04-15T21:56:33.518Z,73.34
2023-04-15T21:59:00.432Z,73.33
2023-04-15T22:01:27.459Z,73.34
2023-04-15T22:03:54.375Z,73.26
2023-04-15T22:06:21.762Z,73.23
2023-04-15T22:08:56.763Z,73.43
2023-04-15T22:11:27.700Z,73.48
2023-04-15T22:13:55.607Z,73.84
2023-04-15T22:16:22.413Z,73.90
2023-04-15T22:18:49.376Z,73.85
2023-04-15T22:21:16.408Z,73.79
2023-04-15T22:23:47.430Z,73.73
2023-04-15T22:26:14.527Z,73.70
2023-04-15T22:28:41.815Z,73.68
2023-04-15T22:31:08.815Z,73.68
2023-04-15T22:33:35.891Z,73.66
2023-04-15T22:36:02.637Z,73.66
2023-04-15T22:38:29.383Z,73.63
2023-04-15T22:40:56.308Z,73.61
2023-04-15T22:43:23.056Z,73.57
2023-04-15T22:45:50.678Z,73.62
2023-04-15T22:48:18.390Z,73.58
2023-04-15T22:50:45.243Z,73.54
2023-04-15T22:53:12.356Z,73.52
2023-04-15T22:55:39.179Z,73.51
2023-04-15T22:58:06.119Z,73.36
2023-04-15T23:00:32.888Z,73.42
2023-04-15T23:02:59.903Z,73.45
2023-04-15T23:05:27.725Z,73.56
2023-04-15T23:07:54.791Z,73.44
2023-04-15T23:10:21.776Z,73.52
2023-04-15T23:12:48.817Z,73.57
2023-04-15T23:15:15.852Z,73.52
2023-04-15T23:17:43.377Z,73.52
2023-04-15T23:20:11.418Z,73.61
2023-04-15T23:22:38.652Z,73.69
2023-04-15T23:25:05.910Z,73.80
2023-04-15T23:27:32.733Z,73.73
2023-04-15T23:29:59.519Z,73.67
2023-04-15T23:32:27.449Z,73.69
2023-04-15T23:34:54.347Z,73.74
2023-04-15T23:37:21.164Z,73.81
2023-04-15T23:39:47.877Z,73.79
2023-04-15T23:42:14.910Z,73.86
2023-04-15T23:44:41.915Z,73.96
2023-04-15T23:47:08.818Z,73.93
2023-04-15T23:49:36.738Z,73.95
2023-04-15T23:52:03.853Z,73.94
2023-04-15T23:54:30.754Z,73.83
2023-04-15T23:56:57.514Z,73.70
2023-04-15T23:59:24.330Z,73.65
